Aérodrome :
LOGIN :

S'inscrire | Disclaimer

   EN    FR    IT 

 










Légende :    VFR   VFR Marginal   IFR   IFR Intensif   IFR Très Intensif
Visi : 
Plafond : 
>= 8 km
>= 3000ft
5 à 8 km
1000 à 3000 ft
1500m à 5 km
500 à 1000 ft
800 à 1500m
200 à 500 ft
< 800m
< 200 ft
Symboles :   Orages  Brouillard  Fortes neiges  Fortes précipitations  Vent > 20 kt
SIGMETs :   Divers  Orages  Givrage  Turbulence  Onde Orograph.  Cendres Volcan.







- Altitude de l'aérodrome : 277 ft
- Code IATA : JER
- Voir les cartes d'approche


EGJJ - Jersey

DERNIER METAR :
  • 270350Z 17008KT 9999 SCT015 17/15 Q1011 BECMG BKN010

METARs EXPIRÉS :
  • 270320Z 20011KT 9999 FEW040 17/15 Q1011 NOSIG
  • 270250Z 19011KT 9999 -SHRA FEW040 19/15 Q1011 NOSIG

TAF TAF EGJJ
Valide du 27 à 03h jusqu'au 27 à 12h UTC


270200Z 2703/2712 17012KT 9999 FEW030CB
PROB30
TEMPO 2703/2705 5000 TSRA BKN030CB
BECMG 2703/2705 23015KT BKN010
PROB30
TEMPO 2707/2712 0300 FG BKN000
ATIS : +44 1534 498 073
Pas de NOTAMs connus pour ce terrain.



MET'MAP, la Météo Aéronautique d'un coup d'oeil ! - Copyright ORBIFLY Décembre 2007 - Disclaimer

ORBIFLY MET'MAP TEAM :

Programmation & Développement : Alexandra Zaïnal
Conception & Développement : Baudouin d'Aumeries
Co-Programmation & Développement : Marc-Olivier Méhu
Soutien technique & logistique : Manuel Goepfert

Contact : metmap@orbifly.com




SOURCES & CREDITS :

   NOAA